• Join FlightAware (Why Join?)
  • Login
  • US Flag 
05:06PM EDT


 

Airport Tracker/Info


-or-


 

Live Flight TrackerFlight Track Log ✈ UPS1122 ✈ 10-Oct-2013 ✈ KBDL - KALB

Flight Track Log - Related Links

Times and Time Zones

All times are in EDT time to prevent confusion due to time zone crossing. See the UPS1122 flight status page for this flight to view local times or setup timezone preferences in your user account.

Time Position Orientation Groundspeed Altitude Reporting Facility
EDT Latitude Longitude Course Direction KTS MPH feet Rate Location/Type
06:46AM 42.0110 -72.8000 310° West 265 305 4,900  Level FlightAware
06:47AM 42.0280 -72.8270 310° West 279 321 6,200 4,140 Climbing FlightAware
06:47AM 42.0480 -72.8540 315° West 287 330 7,800 3,780 Climbing FlightAware
06:47AM 42.0620 -72.8750 312° West 292 336 8,600 2,580 Climbing FlightAware
06:48AM 42.0830 -72.9040 314° West 304 350 9,400 1,620 Climbing FlightAware
06:48AM 42.1030 -72.9300 316° Northwest 304 350 9,700 420 Climbing FlightAware
06:48AM 42.1230 -72.9570 315° West 342 394 9,700 -180 Level FlightAware
06:49AM 42.1490 -72.9920 315° West 360 414 9,600  Descending FlightAware
06:49AM 42.1770 -73.0310 314° West 362 417 9,700  Climbing FlightAware
06:49AM 42.1910 -73.0490 316° Northwest 362 417 9,600 -240 Descending FlightAware
06:50AM 42.2130 -73.0850 310° West 362 417 9,600  Level FlightAware
06:50AM 42.2280 -73.1130 306° West 361 415 9,600  Level FlightAware
06:50AM 42.2480 -73.1550 303° West 359 413 9,600  Level FlightAware
06:51AM 42.2650 -73.1890 304° West 335 386 9,600 120 Level FlightAware
06:51AM 42.2840 -73.2290 303° West 310 357 9,700  Climbing FlightAware
06:51AM 42.2990 -73.2610 302° West 303 349 9,600 -180 Descending FlightAware
06:52AM 42.3160 -73.2960 303° West 302 348 9,600 -120 Level FlightAware
06:52AM 42.3430 -73.3540 302° West 299 344 9,500 -1,200 Descending FlightAware
06:53AM 42.3630 -73.3960 303° West 292 336 8,300 -2,280 Descending FlightAware
06:53AM 42.3780 -73.4250 305° West 287 330 7,900 -1,380 Descending FlightAware
06:53AM 42.3870 -73.4430 304° West 283 326 7,600 -1,080 Descending FlightAware
06:54AM 42.4244 -73.5200 304° West 281 323 6,700 -1,320 Descending Boston Center
06:55AM 42.4714 -73.6222 302° West 273 314 4,900 -1,560 Descending Boston Center
06:56AM 42.5122 -73.6992 306° West 274 315 3,600 -1,200 Descending Boston Center
06:57AM 42.5553 -73.7733 308° West 251 289 2,700 -780 Descending Boston Center
06:58AM 42.6089 -73.8025 338° Northwest 200 230 2,100 -300 Descending Boston Center
06:59AM 42.6569 -73.8008 North 152 175 2,100 -480 Level Boston Center
07:00AM 42.6922 -73.8072 352° North 124 143 1,200 -780 Descending Boston Center
07:01AM 42.7256 -73.8053 North 113 130 600 -600 Descending Boston Center
07:03AM 42.7333 -73.8000 North  Level FlightAware Approximate
07:10AM 42.7491 -73.8020 North  Level Estimated
07:11AM 42.7491 -73.8020 North  Level Estimated